Terminal Aerodrome Forecast
Issued by NWS Lake Charles, LA

Home | Current Version | Previous Version | Text Only | Print | Product List | Glossary On
Versions: 1 2 3 4 5 6 7 8 9 10 11 12 13 14 15
000
FTUS44 KLCH 202300
TAFAEX
TAF
KAEX 202324Z 2100/2124 VRB03KT P6SM SKC
      TEMPO 2109/2112 3SM BR SKC
     FM211500 03005KT P6SM SKC=

USA.gov is the U.S. government's official web portal to all federal, state and local government web resources and services.